createdAt,value
2019-06-01T00:04:22.315Z,6.83
2019-06-01T00:09:29.624Z,7.03
2019-06-01T00:14:36.994Z,6.83
2019-06-01T00:19:44.175Z,6.70
2019-06-01T00:24:52.307Z,7.63
2019-06-01T00:30:00.509Z,8.33
2019-06-01T00:35:08.454Z,6.20
2019-06-01T00:40:15.631Z,6.73
2019-06-01T00:45:22.773Z,4.30
2019-06-01T00:50:30.855Z,12.53
2019-06-01T00:55:37.966Z,5.80
2019-06-01T01:00:47.773Z,5.90
2019-06-01T01:05:55.397Z,4.83
2019-06-01T01:11:02.686Z,4.33
2019-06-01T01:16:09.908Z,5.08
2019-06-01T01:21:17.159Z,5.00
2019-06-01T01:26:24.314Z,6.47
2019-06-01T01:31:32.259Z,4.67
2019-06-01T01:36:39.511Z,4.80
2019-06-01T01:41:47.995Z,6.80
2019-06-01T01:46:55.405Z,7.10
2019-06-01T01:52:02.666Z,7.10
2019-06-01T01:57:10.422Z,9.87
2019-06-01T02:02:17.589Z,9.37
2019-06-01T02:07:25.116Z,9.10
2019-06-01T02:12:32.971Z,9.20
2019-06-01T02:17:40.448Z,10.83
2019-06-01T02:22:48.520Z,13.57
2019-06-01T02:27:57.330Z,11.23
2019-06-01T02:33:05.703Z,10.60
2019-06-01T02:38:12.813Z,9.70
2019-06-01T02:43:20.009Z,10.03
2019-06-01T02:48:27.098Z,10.77
2019-06-01T02:53:34.190Z,11.20
2019-06-01T02:58:41.345Z,12.03
2019-06-01T03:03:48.754Z,10.83
2019-06-01T03:08:57.743Z,10.23
2019-06-01T03:14:08.813Z,11.60
2019-06-01T03:19:19.535Z,10.63
2019-06-01T03:24:27.068Z,9.77
2019-06-01T03:29:36.913Z,9.93
2019-06-01T03:34:43.955Z,9.93
2019-06-01T03:39:51.229Z,10.73
2019-06-01T03:44:58.345Z,10.87
2019-06-01T03:50:06.912Z,11.27
2019-06-01T03:55:14.273Z,9.37
2019-06-01T04:00:22.168Z,9.47
2019-06-01T04:05:29.354Z,9.80
2019-06-01T04:10:36.595Z,10.33
2019-06-01T04:15:43.694Z,11.30
2019-06-01T04:20:51.242Z,10.73
2019-06-01T04:25:58.551Z,11.77
2019-06-01T04:31:06.485Z,10.10
2019-06-01T04:36:13.814Z,11.83
2019-06-01T04:41:21.038Z,11.90
2019-06-01T04:46:28.888Z,12.30
2019-06-01T04:51:36.007Z,11.37
2019-06-01T04:56:43.245Z,12.70
2019-06-01T05:01:50.345Z,11.10
2019-06-01T05:06:57.949Z,10.27
2019-06-01T05:12:07.410Z,15.87
2019-06-01T05:17:15.398Z,10.77
2019-06-01T05:22:23.600Z,10.35
2019-06-01T05:27:30.776Z,10.70
2019-06-01T05:32:37.847Z,10.33
2019-06-01T05:37:44.962Z,9.30
2019-06-01T05:42:52.019Z,8.47
2019-06-01T05:47:59.164Z,10.33
2019-06-01T05:53:06.616Z,9.87
2019-06-01T05:58:14.980Z,8.33
2019-06-01T06:03:39.265Z,8.70
2019-06-01T06:08:32.121Z,9.20
2019-06-01T06:13:39.193Z,9.10
2019-06-01T06:18:46.414Z,9.00
2019-06-01T06:23:53.571Z,8.73
2019-06-01T06:29:00.635Z,8.57
2019-06-01T06:34:07.783Z,8.10
2019-06-01T06:39:15.839Z,7.70
2019-06-01T06:44:23.066Z,7.80
2019-06-01T06:49:30.147Z,7.47
2019-06-01T06:54:37.247Z,7.80
2019-06-01T06:59:45.749Z,7.23
2019-06-01T07:04:53.148Z,6.73
2019-06-01T07:10:01.139Z,5.97
2019-06-01T07:15:09.299Z,6.57
2019-06-01T07:20:19.529Z,6.63
2019-06-01T07:25:26.900Z,5.70
2019-06-01T07:30:49.438Z,6.30
2019-06-01T07:35:43.235Z,6.80
2019-06-01T07:40:51.735Z,6.50
2019-06-01T07:45:59.136Z,6.50
2019-06-01T07:51:06.391Z,6.50
2019-06-01T07:56:13.447Z,5.90
2019-06-01T08:01:22.766Z,5.50
2019-06-01T08:06:30.913Z,5.43
2019-06-01T08:11:38.722Z,6.00
2019-06-01T08:16:45.813Z,5.87
2019-06-01T08:21:52.903Z,5.53
2019-06-01T08:27:00.311Z,5.13
2019-06-01T08:32:07.378Z,5.47
2019-06-01T08:37:14.424Z,5.40
2019-06-01T08:42:23.442Z,6.00
2019-06-01T08:47:31.827Z,6.00
2019-06-01T08:52:39.172Z,5.30
2019-06-01T08:57:46.252Z,5.47
2019-06-01T09:02:54.259Z,5.60
2019-06-01T09:08:01.452Z,4.97
2019-06-01T09:13:09.310Z,5.63
2019-06-01T09:18:16.389Z,5.00
2019-06-01T09:23:27.670Z,4.97
2019-06-01T09:28:36.082Z,4.87
2019-06-01T09:33:43.330Z,4.10
2019-06-01T09:38:50.357Z,4.80
2019-06-01T09:43:57.434Z,4.50
2019-06-01T09:49:04.538Z,4.53
2019-06-01T09:54:11.630Z,4.47
2019-06-01T09:59:18.719Z,5.10
2019-06-01T10:04:25.780Z,5.67
2019-06-01T10:09:33.688Z,5.23
2019-06-01T10:14:40.808Z,6.10
2019-06-01T10:19:47.879Z,7.10
2019-06-01T10:24:54.991Z,7.20
2019-06-01T10:30:02.776Z,6.67
2019-06-01T10:35:10.052Z,7.50
2019-06-01T10:40:17.227Z,5.90
2019-06-01T10:45:25.408Z,5.30
2019-06-01T10:50:34.865Z,6.07
2019-06-01T10:55:42.525Z,5.90
2019-06-01T11:00:51.516Z,6.07
2019-06-01T11:05:59.442Z,5.93
2019-06-01T11:11:06.512Z,5.50
2019-06-01T11:16:13.627Z,7.10
2019-06-01T11:21:21.265Z,6.40
2019-06-01T11:26:28.328Z,6.00
2019-06-01T11:31:35.973Z,5.63
2019-06-01T11:37:01.823Z,6.03
2019-06-01T11:41:52.079Z,5.97
2019-06-01T11:46:59.130Z,6.27
2019-06-01T11:52:08.267Z,6.83
2019-06-01T11:57:15.325Z,7.20
2019-06-01T12:02:24.097Z,6.00
2019-06-01T12:07:31.666Z,6.90
2019-06-01T12:12:40.213Z,8.03
2019-06-01T12:17:47.719Z,8.40
2019-06-01T12:22:54.768Z,8.13
2019-06-01T12:28:02.147Z,7.63
2019-06-01T12:33:10.451Z,7.42
2019-06-01T12:38:17.699Z,7.93
2019-06-01T12:43:24.787Z,7.23
2019-06-01T12:48:32.417Z,5.93
2019-06-01T12:53:40.373Z,5.75
2019-06-01T12:58:48.222Z,5.62
2019-06-01T13:03:55.302Z,5.70
2019-06-01T13:09:02.267Z,5.57
2019-06-01T13:14:10.928Z,5.03
2019-06-01T13:19:18.006Z,5.12
2019-06-01T13:24:25.092Z,5.03
2019-06-01T13:29:32.103Z,5.47
2019-06-01T13:34:42.518Z,4.97
2019-06-01T13:39:54.229Z,5.20
2019-06-01T13:44:58.644Z,5.35
2019-06-01T13:50:06.990Z,5.17
2019-06-01T13:55:14.863Z,4.90
2019-06-01T14:00:30.339Z,5.20
2019-06-01T14:05:31.556Z,4.93
2019-06-01T14:10:38.903Z,5.00
2019-06-01T14:15:47.294Z,6.10
2019-06-01T14:20:56.025Z,5.00
2019-06-01T14:26:03.208Z,5.65
2019-06-01T14:31:10.197Z,5.25
2019-06-01T14:36:17.817Z,5.30
2019-06-01T14:41:25.117Z,5.40
2019-06-01T14:46:32.674Z,5.12
2019-06-01T14:51:39.767Z,4.85
2019-06-01T14:56:47.611Z,5.63
2019-06-01T15:01:56.177Z,5.43
2019-06-01T15:07:03.724Z,5.90
2019-06-01T15:12:11.066Z,6.57
2019-06-01T15:17:18.119Z,6.50
2019-06-01T15:22:25.986Z,6.93
2019-06-01T15:27:33.050Z,6.10
2019-06-01T15:32:40.222Z,6.20
2019-06-01T15:37:47.397Z,7.60
2019-06-01T15:42:55.229Z,8.28
2019-06-01T15:48:02.458Z,6.43
2019-06-01T15:53:09.998Z,8.40
2019-06-01T15:58:17.041Z,9.60
2019-06-01T16:03:24.001Z,7.37
2019-06-01T16:08:31.756Z,10.48
2019-06-01T16:13:38.852Z,11.00
2019-06-01T16:18:46.045Z,10.00
2019-06-01T16:23:54.112Z,10.28
2019-06-01T16:29:03.303Z,9.45
2019-06-01T16:34:10.858Z,8.40
2019-06-01T16:39:18.026Z,8.97
2019-06-01T16:44:25.673Z,8.05
2019-06-01T16:49:33.183Z,8.30
2019-06-01T16:54:40.208Z,7.03
2019-06-01T16:59:47.277Z,7.47
2019-06-01T17:04:54.368Z,8.00
2019-06-01T17:10:19.575Z,7.90
2019-06-01T17:15:11.221Z,7.60
2019-06-01T17:20:47.738Z,6.87
2019-06-01T17:25:54.854Z,6.78
2019-06-01T17:31:02.274Z,7.20
2019-06-01T17:36:09.580Z,7.03
2019-06-01T17:41:16.762Z,7.80
2019-06-01T17:46:23.780Z,7.83
2019-06-01T17:51:31.957Z,8.20
2019-06-01T17:56:39.160Z,7.23
2019-06-01T18:01:46.325Z,7.93
2019-06-01T18:06:53.491Z,8.50
2019-06-01T18:12:01.873Z,7.90
2019-06-01T18:17:10.337Z,9.00
2019-06-01T18:22:17.555Z,8.13
2019-06-01T18:27:24.718Z,8.83
2019-06-01T18:32:31.778Z,8.43
2019-06-01T18:37:38.804Z,8.73
2019-06-01T18:42:49.828Z,9.73
2019-06-01T18:47:57.120Z,9.57
2019-06-01T18:53:05.846Z,9.70
2019-06-01T18:58:14.669Z,9.35
2019-06-01T19:03:21.976Z,9.20
2019-06-01T19:08:29.439Z,14.30
2019-06-01T19:13:36.529Z,11.07
2019-06-01T19:18:43.568Z,13.53
2019-06-01T19:23:51.821Z,10.47
2019-06-01T19:28:59.007Z,11.23
2019-06-01T19:34:06.893Z,11.93
2019-06-01T19:39:15.201Z,16.67
2019-06-01T19:44:22.349Z,14.47
2019-06-01T19:49:29.536Z,23.10
2019-06-01T19:54:36.626Z,21.57
2019-06-01T19:59:43.802Z,21.10
2019-06-01T20:04:51.814Z,24.73
2019-06-01T20:09:59.375Z,30.43
2019-06-01T20:15:06.624Z,37.97
2019-06-01T20:20:16.955Z,45.83
2019-06-01T20:25:24.133Z,27.53
2019-06-01T20:30:31.201Z,24.90
2019-06-01T20:35:38.289Z,23.60
2019-06-01T20:40:45.530Z,26.57
2019-06-01T20:45:56.627Z,23.03
2019-06-01T20:51:01.878Z,23.57
2019-06-01T20:56:09.041Z,27.03
2019-06-01T21:01:16.154Z,24.23
2019-06-01T21:06:24.038Z,20.57
2019-06-01T21:11:31.573Z,19.97
2019-06-01T21:16:38.711Z,19.03
2019-06-01T21:21:47.035Z,19.00
2019-06-01T21:26:55.013Z,18.57
2019-06-01T21:32:02.115Z,18.43
2019-06-01T21:37:09.972Z,18.17
2019-06-01T21:42:17.431Z,21.47
2019-06-01T21:47:25.827Z,20.17
2019-06-01T21:52:32.976Z,20.90
2019-06-01T21:57:40.076Z,20.37
2019-06-01T22:02:47.491Z,20.43
2019-06-01T22:07:54.565Z,20.30
2019-06-01T22:13:17.535Z,26.47
2019-06-01T22:18:10.461Z,21.65
2019-06-01T22:23:17.934Z,16.97
2019-06-01T22:28:26.292Z,28.83
2019-06-01T22:33:34.563Z,23.23
2019-06-01T22:38:42.257Z,19.90
2019-06-01T22:43:49.304Z,18.23
2019-06-01T22:48:56.431Z,21.60
2019-06-01T22:54:05.198Z,19.13
2019-06-01T22:59:12.397Z,18.90
2019-06-01T23:04:20.854Z,17.27
2019-06-01T23:09:29.477Z,17.83
2019-06-01T23:14:36.928Z,18.52
2019-06-01T23:19:44.143Z,18.07
2019-06-01T23:24:51.340Z,18.23
2019-06-01T23:29:58.394Z,17.80
2019-06-01T23:35:06.501Z,18.73
2019-06-01T23:40:13.697Z,17.32
2019-06-01T23:45:20.773Z,17.85
2019-06-01T23:50:29.161Z,18.90
2019-06-01T23:55:36.421Z,19.50
